Time;durP1;ratioP1;P1;durP2;ratioP2;P2;SDS_P1;SDS_P2;PMS_P1;PMS_P2;Temp;Humidity;BMP_temperature;BMP_pressure;BME280_temperature;BME280_humidity;BME280_pressure;Samples;Min_cycle;Max_cycle;Signal;HPM_P1;HPM_P2
2024/03/17 00:01:14;;;;;;;5.27;3.30;;;7.70;99.90;;;;;;5112681;27;20092;-75
2024/03/17 00:03:39;;;;;;;4.57;3.30;;;7.70;99.90;;;;;;5093092;28;20051;-73
2024/03/17 00:06:05;;;;;;;4.80;3.00;;;7.70;99.90;;;;;;5120319;27;20117;-73
2024/03/17 00:08:31;;;;;;;4.70;3.00;;;7.70;99.90;;;;;;5113065;27;20550;-73
2024/03/17 00:10:56;;;;;;;5.43;3.53;;;7.70;99.90;;;;;;5113029;28;20393;-72
2024/03/17 00:13:23;;;;;;;4.17;3.00;;;7.60;99.90;;;;;;5112222;27;20035;-73
2024/03/17 00:15:49;;;;;;;5.23;3.30;;;7.70;99.90;;;;;;5111687;27;20031;-73
2024/03/17 00:18:15;;;;;;;6.23;3.50;;;7.60;99.90;;;;;;5112233;27;20039;-75
2024/03/17 00:20:40;;;;;;;7.67;3.83;;;7.60;99.90;;;;;;5112173;27;20102;-75
2024/03/17 00:23:07;;;;;;;5.20;3.40;;;7.60;99.90;;;;;;5115911;27;20027;-75
2024/03/17 00:25:34;;;;;;;4.70;3.37;;;7.60;99.90;;;;;;5112473;27;20437;-76
2024/03/17 00:28:00;;;;;;;4.27;3.60;;;7.60;99.90;;;;;;5111872;27;20091;-75
2024/03/17 00:30:25;;;;;;;4.70;3.63;;;7.50;99.90;;;;;;5111856;27;20507;-75
2024/03/17 00:32:51;;;;;;;6.80;3.80;;;7.60;99.90;;;;;;5111992;27;20027;-75
2024/03/17 00:35:20;;;;;;;6.50;3.83;;;7.50;99.90;;;;;;5111869;27;20066;-75
2024/03/17 00:37:47;;;;;;;4.23;3.27;;;7.50;99.90;;;;;;5095174;28;20079;-75
2024/03/17 00:40:12;;;;;;;5.23;3.97;;;7.50;99.90;;;;;;5094902;28;20030;-75
2024/03/17 00:42:38;;;;;;;5.27;3.63;;;7.50;99.90;;;;;;5111766;27;20020;-75
2024/03/17 00:45:06;;;;;;;4.57;3.93;;;7.50;99.90;;;;;;5111253;27;20016;-75
2024/03/17 00:47:32;;;;;;;5.03;3.60;;;7.50;99.90;;;;;;5118942;27;20046;-75
2024/03/17 00:49:58;;;;;;;5.50;4.10;;;7.50;99.90;;;;;;5110870;28;20031;-75
2024/03/17 00:52:23;;;;;;;5.37;4.50;;;7.50;99.90;;;;;;5115515;27;20035;-75
2024/03/17 00:54:49;;;;;;;7.00;4.20;;;7.50;99.90;;;;;;5110652;27;20444;-75
2024/03/17 00:57:18;;;;;;;8.07;4.93;;;7.50;99.90;;;;;;5111432;27;20035;-75
2024/03/17 00:59:46;;;;;;;6.70;4.40;;;7.50;99.90;;;;;;5111298;27;20019;-75
2024/03/17 01:02:13;;;;;;;6.37;4.40;;;7.50;99.90;;;;;;5114844;27;20034;-74
2024/03/17 01:04:42;;;;;;;6.27;4.57;;;7.50;99.90;;;;;;5114968;27;20024;-76
2024/03/17 01:07:07;;;;;;;5.80;4.80;;;7.50;99.90;;;;;;5111100;27;20024;-75
2024/03/17 01:09:33;;;;;;;6.00;4.97;;;7.50;99.90;;;;;;5111365;27;20034;-74
2024/03/17 01:11:58;;;;;;;5.83;5.17;;;7.50;99.90;;;;;;5111792;27;20479;-75
2024/03/17 01:14:24;;;;;;;7.60;5.23;;;7.50;99.90;;;;;;5111317;27;20081;-75
2024/03/17 01:16:52;;;;;;;7.40;4.70;;;7.50;99.90;;;;;;5111656;27;20034;-75
2024/03/17 01:19:18;;;;;;;5.87;4.60;;;7.50;99.90;;;;;;5111954;27;20024;-75
2024/03/17 01:21:43;;;;;;;7.17;4.83;;;7.50;99.90;;;;;;5111978;27;20026;-75
2024/03/17 01:24:09;;;;;;;8.03;4.97;;;7.50;99.90;;;;;;5112552;28;20041;-75
2024/03/17 01:26:35;;;;;;;6.77;4.90;;;7.40;99.90;;;;;;5111885;27;20023;-75
2024/03/17 01:29:01;;;;;;;6.60;4.90;;;7.30;99.90;;;;;;5110756;28;20051;-76
2024/03/17 01:31:27;;;;;;;7.20;5.33;;;7.30;99.90;;;;;;5111005;27;20030;-75
2024/03/17 01:33:53;;;;;;;6.73;4.67;;;7.20;99.90;;;;;;5111260;28;20384;-75
2024/03/17 01:36:18;;;;;;;6.83;4.87;;;7.20;99.90;;;;;;5110255;27;20038;-75
2024/03/17 01:38:44;;;;;;;6.33;4.80;;;7.10;99.90;;;;;;5112355;28;20030;-75
2024/03/17 01:41:10;;;;;;;7.30;4.63;;;7.10;99.90;;;;;;5111076;28;20034;-75
2024/03/17 01:43:35;;;;;;;6.20;4.83;;;7.00;99.90;;;;;;5113558;27;20050;-75
2024/03/17 01:46:02;;;;;;;5.43;4.17;;;7.00;99.90;;;;;;5110578;27;20043;-75
2024/03/17 01:48:28;;;;;;;6.30;4.50;;;7.00;99.90;;;;;;5111150;28;20023;-75
2024/03/17 01:50:56;;;;;;;7.13;4.20;;;6.90;99.90;;;;;;5111371;27;20076;-75
2024/03/17 01:53:24;;;;;;;5.47;3.90;;;6.90;99.90;;;;;;5110685;28;20498;-75
2024/03/17 01:55:49;;;;;;;6.33;4.83;;;6.90;99.90;;;;;;5111352;27;20106;-75
2024/03/17 01:58:17;;;;;;;5.27;4.13;;;6.90;99.90;;;;;;5115918;27;20157;-75
2024/03/17 02:00:42;;;;;;;6.17;4.67;;;6.90;99.90;;;;;;5101546;28;20031;-75
2024/03/17 02:03:09;;;;;;;7.93;4.53;;;6.90;99.90;;;;;;5110953;28;20032;-75
2024/03/17 02:05:39;;;;;;;6.13;4.70;;;6.90;99.90;;;;;;5110580;28;20023;-75
2024/03/17 02:08:06;;;;;;;6.20;4.50;;;6.90;99.90;;;;;;5110220;28;20027;-75
2024/03/17 02:10:33;;;;;;;7.73;4.93;;;6.90;99.90;;;;;;5110452;28;20480;-75
2024/03/17 02:12:59;;;;;;;7.10;4.23;;;6.90;99.90;;;;;;5111807;27;20027;-75
2024/03/17 02:15:25;;;;;;;4.87;4.37;;;6.80;99.90;;;;;;5109494;28;20032;-75
2024/03/17 02:17:50;;;;;;;7.10;4.60;;;6.90;99.90;;;;;;5110304;28;20026;-75
2024/03/17 02:20:16;;;;;;;6.27;4.50;;;6.80;99.90;;;;;;5111376;28;20375;-75
2024/03/17 02:22:41;;;;;;;7.87;4.70;;;6.80;99.90;;;;;;5110227;28;20031;-75
2024/03/17 02:25:08;;;;;;;7.93;4.70;;;6.90;99.90;;;;;;5109041;28;20065;-75
2024/03/17 02:27:37;;;;;;;6.43;4.50;;;6.90;99.90;;;;;;5110171;28;20093;-75
2024/03/17 02:30:04;;;;;;;6.43;4.83;;;6.90;99.90;;;;;;5117919;28;20119;-75
2024/03/17 02:32:30;;;;;;;6.67;4.67;;;6.90;99.90;;;;;;5109873;28;20036;-75
2024/03/17 02:34:56;;;;;;;5.97;4.70;;;6.90;99.90;;;;;;5110539;28;20051;-75
2024/03/17 02:37:22;;;;;;;6.43;4.57;;;6.90;99.90;;;;;;5110674;28;20020;-75
2024/03/17 02:39:47;;;;;;;6.90;4.63;;;6.90;99.90;;;;;;5109169;28;20031;-76
2024/03/17 02:42:13;;;;;;;8.17;4.50;;;6.90;99.90;;;;;;5109581;28;20011;-75
2024/03/17 02:44:40;;;;;;;7.57;5.90;;;6.90;99.90;;;;;;5109558;28;20015;-75
2024/03/17 02:47:09;;;;;;;6.77;4.57;;;7.00;99.90;;;;;;5111597;28;20035;-75
2024/03/17 02:49:43;;;;;;;7.83;4.77;;;7.00;99.90;;;;;;5110484;28;20054;-75
2024/03/17 02:52:10;;;;;;;7.50;4.93;;;6.90;99.90;;;;;;5112092;28;20028;-76
2024/03/17 02:54:36;;;;;;;7.37;4.70;;;7.00;99.90;;;;;;5109496;28;20100;-75
2024/03/17 02:57:07;;;;;;;6.90;4.67;;;7.00;99.90;;;;;;5110393;28;20080;-75
2024/03/17 02:59:33;;;;;;;6.00;4.27;;;6.90;99.90;;;;;;5109497;28;20027;-75
2024/03/17 03:01:59;;;;;;;6.77;4.90;;;6.90;99.90;;;;;;5112287;28;20031;-75
2024/03/17 03:04:25;;;;;;;7.70;5.23;;;6.90;99.90;;;;;;5109582;28;20387;-75
2024/03/17 03:06:51;;;;;;;6.33;4.83;;;6.90;99.90;;;;;;5115620;28;20101;-75
2024/03/17 03:09:25;;;;;;;6.73;5.23;;;6.80;99.90;;;;;;5109574;28;20110;-75
2024/03/17 03:11:51;;;;;;;6.90;4.67;;;6.80;99.90;;;;;;5108335;28;20100;-75
2024/03/17 03:14:17;;;;;;;6.63;4.50;;;6.80;99.90;;;;;;5110817;28;20144;-75
2024/03/17 03:16:43;;;;;;;6.40;4.60;;;6.80;99.90;;;;;;5114599;28;20117;-76
2024/03/17 03:19:09;;;;;;;5.50;4.90;;;6.80;99.90;;;;;;5110538;28;20491;-75
2024/03/17 03:21:34;;;;;;;6.07;4.70;;;6.80;99.90;;;;;;5109579;28;20028;-75
2024/03/17 03:24:00;;;;;;;5.90;5.00;;;6.80;99.90;;;;;;5109528;28;20483;-75
2024/03/17 03:26:26;;;;;;;5.67;4.70;;;6.80;99.90;;;;;;5110294;27;20068;-75
2024/03/17 03:28:52;;;;;;;5.83;4.50;;;6.80;99.90;;;;;;5113996;28;20100;-75
2024/03/17 03:31:17;;;;;;;8.83;4.97;;;6.80;99.90;;;;;;5110020;28;20051;-75
2024/03/17 03:33:43;;;;;;;6.90;4.93;;;6.80;99.90;;;;;;5109521;28;20668;-75
2024/03/17 03:36:10;;;;;;;5.87;4.53;;;6.80;99.90;;;;;;5110434;28;20073;-75
2024/03/17 03:38:36;;;;;;;5.23;4.37;;;6.90;99.90;;;;;;5112167;28;20028;-75
2024/03/17 03:41:15;;;;;;;5.30;4.50;;;6.80;99.90;;;;;;5113939;28;20015;-75
2024/03/17 03:43:40;;;;;;;7.83;5.10;;;6.80;99.90;;;;;;5113440;27;20016;-75
2024/03/17 03:46:07;;;;;;;7.07;4.93;;;6.80;99.90;;;;;;5112437;27;20472;-75
2024/03/17 03:48:36;;;;;;;6.50;4.67;;;6.80;99.90;;;;;;5113213;27;20019;-75
2024/03/17 03:51:06;;;;;;;10.73;5.43;;;6.80;99.90;;;;;;5113022;27;20050;-75
2024/03/17 03:53:32;;;;;;;8.10;4.70;;;6.80;99.90;;;;;;5112713;27;20051;-75
2024/03/17 03:55:59;;;;;;;5.60;4.70;;;6.80;99.90;;;;;;5112778;27;20077;-75
2024/03/17 03:58:24;;;;;;;7.50;4.37;;;6.80;99.90;;;;;;5116773;27;20039;-75
2024/03/17 04:00:50;;;;;;;6.73;4.80;;;6.80;99.90;;;;;;5113254;28;20081;-76
2024/03/17 04:03:15;;;;;;;7.30;4.70;;;6.80;99.90;;;;;;5112650;27;20510;-74
2024/03/17 04:05:41;;;;;;;7.63;4.90;;;6.80;99.90;;;;;;5112259;27;20028;-75
2024/03/17 04:08:08;;;;;;;7.10;4.83;;;6.80;99.90;;;;;;5112200;27;20038;-75
2024/03/17 04:10:34;;;;;;;5.90;4.97;;;6.80;99.90;;;;;;5112617;27;20456;-76
2024/03/17 04:12:59;;;;;;;5.93;4.63;;;6.80;99.90;;;;;;5112760;27;20072;-75
2024/03/17 04:15:25;;;;;;;6.90;4.70;;;6.70;99.90;;;;;;5112277;27;20420;-75
2024/03/17 04:17:50;;;;;;;7.70;4.80;;;6.70;99.90;;;;;;5113610;27;20522;-75
2024/03/17 04:20:16;;;;;;;6.33;5.23;;;6.70;99.90;;;;;;5113498;27;20032;-75
2024/03/17 04:22:43;;;;;;;7.40;5.10;;;6.70;99.90;;;;;;5113527;28;20019;-74
2024/03/17 04:25:09;;;;;;;7.10;5.10;;;6.70;99.90;;;;;;5115047;27;20035;-75
2024/03/17 04:27:34;;;;;;;6.37;4.83;;;6.70;99.90;;;;;;5115114;27;20137;-75
2024/03/17 04:30:00;;;;;;;7.50;5.20;;;6.70;99.90;;;;;;5112269;27;20024;-75
2024/03/17 04:32:30;;;;;;;10.10;5.20;;;6.70;99.90;;;;;;5112381;27;20016;-75
2024/03/17 04:34:56;;;;;;;7.17;5.10;;;6.70;99.90;;;;;;5112878;27;20032;-72
2024/03/17 04:37:22;;;;;;;5.90;4.70;;;6.70;99.90;;;;;;5113936;27;20094;-72
2024/03/17 04:39:48;;;;;;;6.10;4.90;;;6.70;99.90;;;;;;5112091;27;20392;-72
2024/03/17 04:42:15;;;;;;;6.53;4.83;;;6.70;99.90;;;;;;5111964;27;20100;-72
2024/03/17 04:44:42;;;;;;;7.00;5.77;;;6.70;99.90;;;;;;5111306;27;20059;-72
2024/03/17 04:47:08;;;;;;;6.97;4.97;;;6.70;99.90;;;;;;5112738;27;20139;-73
2024/03/17 04:49:41;;;;;;;6.93;4.80;;;6.70;99.90;;;;;;5111261;27;20043;-72
2024/03/17 04:52:07;;;;;;;7.50;5.33;;;6.70;99.90;;;;;;5111884;27;20033;-72
2024/03/17 04:54:33;;;;;;;7.30;5.40;;;6.70;99.90;;;;;;5111548;27;20644;-72
2024/03/17 04:56:58;;;;;;;6.20;4.73;;;6.70;99.90;;;;;;5112872;27;20019;-73
2024/03/17 04:59:24;;;;;;;8.07;5.60;;;6.70;99.90;;;;;;5112440;28;20118;-73
2024/03/17 05:01:50;;;;;;;9.23;5.07;;;6.70;99.90;;;;;;5112093;28;20080;-72
2024/03/17 05:04:15;;;;;;;7.73;5.50;;;6.60;99.90;;;;;;5111098;27;20024;-73
2024/03/17 05:06:41;;;;;;;6.20;5.27;;;6.60;99.90;;;;;;5111217;27;20401;-73
2024/03/17 05:09:08;;;;;;;8.67;5.10;;;6.60;99.90;;;;;;5111418;27;20376;-72
2024/03/17 05:11:35;;;;;;;5.67;4.50;;;6.60;99.90;;;;;;5111334;27;20058;-72
2024/03/17 05:14:00;;;;;;;7.97;5.63;;;6.60;99.90;;;;;;5112382;27;20024;-72
2024/03/17 05:16:29;;;;;;;6.20;4.83;;;6.60;99.90;;;;;;5111334;28;20026;-72
2024/03/17 05:18:55;;;;;;;8.67;4.90;;;6.50;99.90;;;;;;5106996;27;20080;-72
2024/03/17 05:21:22;;;;;;;8.30;5.50;;;6.50;99.90;;;;;;5110872;28;20376;-72
2024/03/17 05:23:48;;;;;;;8.13;4.83;;;6.50;99.90;;;;;;5111979;27;20483;-72
2024/03/17 05:26:14;;;;;;;7.20;5.17;;;6.40;99.90;;;;;;5111140;27;20023;-73
2024/03/17 05:28:40;;;;;;;8.40;5.40;;;6.40;99.90;;;;;;5111791;27;20077;-73
2024/03/17 05:31:05;;;;;;;8.87;5.43;;;6.40;99.90;;;;;;5110437;27;20071;-72
2024/03/17 05:33:31;;;;;;;6.67;5.00;;;6.40;99.90;;;;;;5110805;28;20035;-72
2024/03/17 05:35:58;;;;;;;9.57;5.60;;;6.40;99.90;;;;;;5111590;27;20020;-73
2024/03/17 05:38:26;;;;;;;8.43;5.80;;;6.40;99.90;;;;;;5110855;27;20032;-72
2024/03/17 05:41:01;;;;;;;7.00;5.70;;;6.40;99.90;;;;;;5110716;27;20054;-72
2024/03/17 05:43:29;;;;;;;8.70;5.37;;;6.40;99.90;;;;;;5110277;27;20024;-73
2024/03/17 05:45:58;;;;;;;7.77;5.50;;;6.50;99.90;;;;;;5111723;28;20019;-72
2024/03/17 05:48:26;;;;;;;9.07;6.03;;;6.50;99.90;;;;;;5110432;27;20703;-73
2024/03/17 05:50:52;;;;;;;7.17;5.90;;;6.50;99.90;;;;;;5110415;28;20386;-72
2024/03/17 05:53:18;;;;;;;8.27;5.70;;;6.50;99.90;;;;;;5110585;27;20107;-72
2024/03/17 05:55:44;;;;;;;8.03;6.20;;;6.50;99.90;;;;;;5110609;28;20024;-72
2024/03/17 05:58:11;;;;;;;9.23;5.53;;;6.60;99.90;;;;;;5111237;28;20057;-76
2024/03/17 06:00:38;;;;;;;9.93;6.50;;;6.60;99.90;;;;;;5109559;27;20480;-75
2024/03/17 06:03:05;;;;;;;8.73;6.20;;;6.70;99.90;;;;;;5110163;27;20020;-76
2024/03/17 06:05:34;;;;;;;18.03;12.03;;;6.60;99.90;;;;;;5114845;27;20562;-75
2024/03/17 06:08:02;;;;;;;11.53;8.67;;;6.70;99.90;;;;;;5113019;27;20023;-82
2024/03/17 06:10:32;;;;;;;10.27;7.40;;;6.70;99.90;;;;;;5109002;27;20024;-76
2024/03/17 06:12:58;;;;;;;29.50;22.37;;;6.80;99.90;;;;;;5110379;28;20027;-73
2024/03/17 06:15:24;;;;;;;19.47;14.40;;;6.80;99.90;;;;;;5112404;27;20024;-77
2024/03/17 06:17:53;;;;;;;12.40;8.67;;;6.80;99.90;;;;;;5111210;28;20024;-76
2024/03/17 06:20:24;;;;;;;13.23;9.97;;;6.80;99.90;;;;;;5109810;28;20024;-77
2024/03/17 06:22:50;;;;;;;37.33;33.10;;;6.90;99.90;;;;;;5110454;28;20123;-76
2024/03/17 06:25:15;;;;;;;15.70;13.03;;;6.90;99.90;;;;;;5090877;28;20487;-76
2024/03/17 06:27:42;;;;;;;13.23;10.70;;;6.90;99.90;;;;;;5109571;28;20061;-77
2024/03/17 06:30:16;;;;;;;11.37;8.33;;;7.00;99.90;;;;;;5112067;28;20085;-76
2024/03/17 06:32:45;;;;;;;9.82;7.97;;;7.00;99.90;;;;;;5109835;28;20498;-76
2024/03/17 06:35:25;;;;;;;10.80;7.50;;;7.10;99.90;;;;;;5109373;28;20098;-74
2024/03/17 06:37:52;;;;;;;9.60;7.10;;;7.20;99.90;;;;;;5112814;28;20034;-74
2024/03/17 06:40:17;;;;;;;10.17;7.27;;;7.20;99.90;;;;;;5111149;28;20020;-74
2024/03/17 06:42:43;;;;;;;12.23;8.37;;;7.30;99.90;;;;;;5108921;28;20047;-74
2024/03/17 06:45:09;;;;;;;11.57;8.17;;;7.30;99.90;;;;;;5115005;27;20092;-74
2024/03/17 06:47:36;;;;;;;15.40;11.17;;;7.40;99.90;;;;;;5115864;27;20035;-75
2024/03/17 06:50:03;;;;;;;13.10;8.63;;;7.40;99.90;;;;;;5110432;28;20036;-75
2024/03/17 06:52:28;;;;;;;15.40;10.00;;;7.50;99.90;;;;;;5107642;28;20444;-74
2024/03/17 06:54:54;;;;;;;12.00;8.83;;;7.50;99.90;;;;;;5105509;28;20076;-75
2024/03/17 06:57:20;;;;;;;12.13;8.83;;;7.60;99.90;;;;;;5108881;28;20081;-76
2024/03/17 06:59:46;;;;;;;12.70;9.80;;;7.60;99.90;;;;;;5109181;28;20016;-76
2024/03/17 07:02:17;;;;;;;11.60;9.03;;;7.60;99.90;;;;;;5109374;28;20074;-74
2024/03/17 07:04:43;;;;;;;10.43;7.77;;;7.70;99.90;;;;;;5110075;28;20038;-75
2024/03/17 07:07:15;;;;;;;11.40;8.97;;;7.80;99.90;;;;;;5111578;28;20023;-80
2024/03/17 07:09:41;;;;;;;16.10;10.47;;;7.90;99.90;;;;;;5112462;28;20028;-75
2024/03/17 07:12:10;;;;;;;11.53;8.30;;;7.90;99.90;;;;;;5114042;27;20066;-75
2024/03/17 07:17:11;;;;;;;11.57;9.13;;;8.10;99.90;;;;;;5184713;22;20353;-80
2024/03/17 07:19:37;;;;;;;11.17;7.70;;;8.10;99.90;;;;;;5012509;28;20034;-87
2024/03/17 07:22:03;;;;;;;11.00;8.50;;;8.20;99.90;;;;;;5010591;28;20142;-84
2024/03/17 07:24:29;;;;;;;11.43;8.60;;;8.30;99.90;;;;;;5013321;28;20022;-85
2024/03/17 07:26:55;;;;;;;10.20;7.53;;;8.40;99.90;;;;;;5008841;28;20040;-85
2024/03/17 07:29:21;;;;;;;12.50;7.60;;;8.40;99.90;;;;;;5006638;28;20042;-85
2024/03/17 07:31:46;;;;;;;9.60;8.10;;;8.50;99.90;;;;;;5002049;28;20101;-83
2024/03/17 07:34:12;;;;;;;8.63;7.13;;;8.60;99.90;;;;;;5006475;28;20030;-84
2024/03/17 07:36:39;;;;;;;9.87;6.67;;;8.70;99.90;;;;;;5007744;28;20493;-84
2024/03/17 07:39:04;;;;;;;8.77;6.83;;;8.80;99.90;;;;;;5007469;28;20026;-86
2024/03/17 07:41:30;;;;;;;8.27;6.03;;;8.90;99.90;;;;;;5008033;28;20026;-85
2024/03/17 07:43:55;;;;;;;7.67;5.53;;;9.00;99.90;;;;;;5009893;28;20098;-84
2024/03/17 07:46:21;;;;;;;7.27;4.27;;;9.10;99.90;;;;;;5011554;28;20109;-85
2024/03/17 07:48:47;;;;;;;6.03;4.77;;;9.20;99.90;;;;;;5010184;28;20049;-84
2024/03/17 07:51:14;;;;;;;7.60;5.37;;;9.30;99.90;;;;;;5010053;28;20088;-85
2024/03/17 07:53:41;;;;;;;7.00;5.37;;;9.30;99.90;;;;;;5011421;28;20096;-85
2024/03/17 07:56:12;;;;;;;6.53;4.30;;;9.50;99.90;;;;;;5010876;28;20026;-85
2024/03/17 07:58:41;;;;;;;5.73;4.37;;;9.50;99.90;;;;;;5007709;28;20095;-86
2024/03/17 08:01:11;;;;;;;5.83;4.27;;;9.60;99.90;;;;;;5008253;28;20030;-85
2024/03/17 08:03:39;;;;;;;7.17;3.87;;;9.70;99.90;;;;;;5009989;28;20029;-87
2024/03/17 08:06:08;;;;;;;5.57;3.90;;;9.80;99.90;;;;;;5007717;28;20062;-86
2024/03/17 08:08:34;;;;;;;5.47;3.90;;;9.80;99.90;;;;;;5007349;28;20045;-87
2024/03/17 08:11:03;;;;;;;4.50;3.60;;;9.90;99.90;;;;;;5007877;28;20093;-83
2024/03/17 08:13:33;;;;;;;4.90;4.00;;;10.00;99.90;;;;;;5010995;28;20108;-87
2024/03/17 08:16:00;;;;;;;7.73;4.17;;;10.10;99.90;;;;;;5007601;28;20053;-87
2024/03/17 08:18:27;;;;;;;5.40;3.93;;;10.20;99.90;;;;;;5008654;28;20065;-87
2024/03/17 08:20:56;;;;;;;5.50;3.73;;;10.30;99.90;;;;;;5007595;28;20086;-87
2024/03/17 08:23:24;;;;;;;5.32;3.75;;;10.40;99.90;;;;;;5008687;28;20033;-85
2024/03/17 08:25:55;;;;;;;5.23;3.70;;;10.50;99.90;;;;;;5006553;28;20322;-87
2024/03/17 08:28:21;;;;;;;6.40;3.90;;;10.50;99.90;;;;;;5009271;28;20022;-87
2024/03/17 08:30:59;;;;;;;7.03;4.47;;;10.50;99.90;;;;;;5006643;28;20038;-87
2024/03/17 08:33:25;;;;;;;5.87;4.63;;;10.70;99.90;;;;;;5007124;28;20478;-77
2024/03/17 08:35:57;;;;;;;4.07;3.33;;;10.80;99.90;;;;;;5010177;28;20097;-87
2024/03/17 08:38:23;;;;;;;6.47;3.28;;;10.90;99.90;;;;;;5005225;28;20033;-88
2024/03/17 08:40:53;;;;;;;5.22;3.75;;;11.00;99.90;;;;;;5005223;28;20076;-88
2024/03/17 08:43:19;;;;;;;4.93;3.87;;;11.00;99.90;;;;;;5005076;28;20027;-87
2024/03/17 08:45:54;;;;;;;4.87;3.70;;;11.10;99.90;;;;;;5008923;28;20061;-83
2024/03/17 08:48:19;;;;;;;4.50;3.40;;;11.20;99.90;;;;;;5007370;28;20049;-84
2024/03/17 08:50:51;;;;;;;6.32;3.90;;;11.20;99.90;;;;;;5002556;28;20368;-88
2024/03/17 08:53:16;;;;;;;4.97;3.55;;;11.20;99.90;;;;;;5006442;28;20430;-84
2024/03/17 08:55:42;;;;;;;4.68;3.47;;;11.20;99.90;;;;;;5005360;28;20034;-85
2024/03/17 08:58:09;;;;;;;5.05;3.72;;;11.30;99.90;;;;;;5000819;28;20033;-86
2024/03/17 09:00:36;;;;;;;7.93;3.58;;;11.40;99.90;;;;;;4998076;28;20045;-86
2024/03/17 09:03:02;;;;;;;4.28;3.60;;;11.40;99.90;;;;;;4995532;28;20031;-86
2024/03/17 09:05:29;;;;;;;6.72;3.97;;;11.50;99.90;;;;;;4996841;28;20038;-86
2024/03/17 09:07:55;;;;;;;7.95;5.40;;;11.70;99.90;;;;;;5001432;28;20026;-86
2024/03/17 09:10:21;;;;;;;7.32;3.70;;;11.90;99.90;;;;;;4999546;28;20030;-86
2024/03/17 09:12:47;;;;;;;5.32;3.88;;;12.10;99.90;;;;;;5001191;28;20591;-86
2024/03/17 09:15:14;;;;;;;4.90;4.07;;;12.20;99.90;;;;;;5001258;28;20030;-86
2024/03/17 09:17:39;;;;;;;5.55;3.42;;;12.20;99.90;;;;;;5000267;28;20037;-86
2024/03/17 09:20:11;;;;;;;8.57;4.00;;;12.30;99.90;;;;;;5003192;28;20026;-89
2024/03/17 09:22:38;;;;;;;6.88;3.20;;;12.30;99.90;;;;;;5000039;28;20384;-86
2024/03/17 09:25:07;;;;;;;3.38;3.08;;;12.40;99.90;;;;;;5003713;28;20019;-86
2024/03/17 09:27:33;;;;;;;4.43;2.90;;;12.40;99.90;;;;;;4997987;28;21238;-86
2024/03/17 09:29:59;;;;;;;5.25;3.20;;;12.40;99.90;;;;;;4998315;28;20030;-84
2024/03/17 09:32:25;;;;;;;5.05;3.20;;;12.50;99.90;;;;;;4996160;28;20034;-89
2024/03/17 09:34:51;;;;;;;5.22;2.53;;;12.60;99.90;;;;;;4997058;28;20022;-86
2024/03/17 09:37:16;;;;;;;3.15;2.55;;;12.80;99.90;;;;;;4999383;28;20026;-86
2024/03/17 09:39:43;;;;;;;3.70;2.47;;;13.00;99.90;;;;;;5001477;28;20030;-86
2024/03/17 09:42:18;;;;;;;3.30;2.60;;;13.20;99.90;;;;;;5000951;28;20033;-86
2024/03/17 09:44:47;;;;;;;3.22;2.47;;;13.20;99.90;;;;;;4997705;28;20030;-87
2024/03/17 09:47:19;;;;;;;2.67;2.13;;;13.00;99.90;;;;;;5004988;28;20061;-74
2024/03/17 09:49:44;;;;;;;3.55;2.15;;;12.90;99.90;;;;;;4999549;28;22014;-86
2024/03/17 09:52:22;;;;;;;3.38;2.88;;;12.70;99.90;;;;;;5002396;28;20033;-86
2024/03/17 09:55:13;;;;;;;4.65;2.60;;;12.60;99.90;;;;;;5006910;28;20026;-85
2024/03/17 09:57:40;;;;;;;3.67;2.60;;;12.60;99.90;;;;;;5001319;28;20037;-86
2024/03/17 10:00:13;;;;;;;6.57;2.65;;;12.50;99.90;;;;;;5007264;28;20056;-86
2024/03/17 10:02:46;;;;;;;3.67;2.58;;;12.40;99.90;;;;;;5003171;28;20026;-86
2024/03/17 10:05:23;;;;;;;5.25;2.65;;;12.40;99.90;;;;;;5005881;28;20090;-86
2024/03/17 10:07:49;;;;;;;2.97;2.30;;;12.30;99.90;;;;;;5005128;28;20493;-85
2024/03/17 10:10:19;;;;;;;4.85;2.58;;;12.30;99.90;;;;;;5004163;28;20050;-86
2024/03/17 10:12:51;;;;;;;3.95;2.35;;;12.20;99.90;;;;;;5004531;28;20109;-89
2024/03/17 10:15:17;;;;;;;4.03;2.75;;;12.20;99.90;;;;;;5005644;28;20034;-86
2024/03/17 10:17:43;;;;;;;4.38;2.75;;;12.30;99.90;;;;;;5004908;28;20500;-86
2024/03/17 10:20:20;;;;;;;3.90;2.55;;;12.30;99.90;;;;;;5003951;28;20465;-85
2024/03/17 10:23:03;;;;;;;3.50;2.15;;;12.40;99.90;;;;;;5005658;28;20030;-87
2024/03/17 10:25:30;;;;;;;7.93;2.25;;;12.50;99.90;;;;;;5003893;28;20085;-88
2024/03/17 10:27:56;;;;;;;3.75;2.13;;;12.70;99.90;;;;;;5007795;28;20076;-86
2024/03/17 10:30:25;;;;;;;3.72;1.88;;;12.80;99.90;;;;;;5003668;28;20034;-88
2024/03/17 10:33:03;;;;;;;4.60;1.83;;;12.90;99.90;;;;;;5000919;28;20098;-83
2024/03/17 10:35:32;;;;;;;2.10;1.48;;;13.20;99.90;;;;;;5001233;28;20045;-87
2024/03/17 10:38:00;;;;;;;3.30;1.65;;;13.40;99.90;;;;;;5002428;28;20030;-88
2024/03/17 10:40:27;;;;;;;4.15;1.83;;;13.60;99.90;;;;;;4998566;28;20449;-87
2024/03/17 10:42:53;;;;;;;3.10;1.45;;;13.80;99.90;;;;;;5000582;28;20029;-88
2024/03/17 10:45:19;;;;;;;5.07;2.15;;;14.00;99.90;;;;;;5003299;28;20181;-88
2024/03/17 10:47:51;;;;;;;4.35;1.45;;;14.30;99.90;;;;;;5000844;28;20498;-83
2024/03/17 10:50:23;;;;;;;5.07;1.55;;;14.40;99.90;;;;;;5006692;28;20433;-87
2024/03/17 10:52:50;;;;;;;3.17;1.40;;;14.60;99.90;;;;;;5004436;28;20375;-88
2024/03/17 10:55:24;;;;;;;5.82;1.58;;;14.90;99.90;;;;;;5006413;28;20022;-88
2024/03/17 10:57:55;;;;;;;5.97;2.10;;;15.20;99.90;;;;;;5006786;28;20022;-88
2024/03/17 11:00:22;;;;;;;3.15;1.23;;;15.20;99.90;;;;;;5007323;28;20038;-89
2024/03/17 11:02:50;;;;;;;3.17;1.33;;;15.30;99.90;;;;;;5007176;28;20037;-88
2024/03/17 11:05:34;;;;;;;2.75;1.52;;;15.30;99.90;;;;;;5006006;28;20032;-87
2024/03/17 11:08:03;;;;;;;3.70;1.42;;;15.20;99.90;;;;;;5005994;28;20113;-89
2024/03/17 11:10:33;;;;;;;2.53;1.40;;;15.40;99.90;;;;;;5006377;28;20034;-88
2024/03/17 11:13:00;;;;;;;4.03;1.60;;;15.60;99.90;;;;;;5006485;28;20026;-90
2024/03/17 11:15:38;;;;;;;4.95;1.58;;;15.60;99.90;;;;;;5006830;28;20034;-84
2024/03/17 11:18:09;;;;;;;4.30;1.42;;;15.60;99.90;;;;;;5016173;28;20081;-88
2024/03/17 11:20:37;;;;;;;3.85;1.30;;;15.70;99.90;;;;;;5007983;28;20050;-88
2024/03/17 11:23:03;;;;;;;3.72;1.48;;;15.70;99.90;;;;;;5007729;28;20031;-85
2024/03/17 11:25:30;;;;;;;4.85;1.55;;;15.70;99.90;;;;;;5001052;28;20041;-86
2024/03/17 11:28:03;;;;;;;3.60;1.30;;;15.80;99.90;;;;;;5001257;28;20038;-85
2024/03/17 11:30:44;;;;;;;2.33;1.00;;;15.90;99.90;;;;;;5003956;28;20394;-88
2024/03/17 11:33:35;;;;;;;3.33;1.48;;;15.90;99.90;;;;;;5004192;28;20474;-86
2024/03/17 11:36:28;;;;;;;3.35;1.42;;;16.10;99.90;;;;;;5000458;28;20119;-85
2024/03/17 11:39:21;;;;;;;4.63;1.52;;;16.10;99.90;;;;;;5005858;28;20452;-85
2024/03/17 11:41:48;;;;;;;3.03;1.50;;;15.80;99.90;;;;;;5004333;28;20613;-88
2024/03/17 11:44:27;;;;;;;3.15;1.30;;;15.50;99.90;;;;;;5004155;28;20034;-85
2024/03/17 11:47:03;;;;;;;4.32;1.48;;;15.20;99.90;;;;;;5001747;28;20032;-85
2024/03/17 11:49:40;;;;;;;2.33;1.20;;;14.90;99.90;;;;;;5000573;28;20033;-86
2024/03/17 11:52:16;;;;;;;2.85;1.35;;;14.90;99.90;;;;;;5003248;28;20050;-86
2024/03/17 11:54:44;;;;;;;2.97;1.40;;;15.00;99.90;;;;;;5002703;28;20041;-85
2024/03/17 11:57:22;;;;;;;2.67;1.23;;;15.00;99.90;;;;;;5002878;28;20551;-86
2024/03/17 11:59:48;;;;;;;2.42;1.48;;;15.00;99.90;;;;;;5001772;28;20026;-85
2024/03/17 12:02:20;;;;;;;3.63;1.30;;;15.00;99.90;;;;;;5000941;28;20080;-87
2024/03/17 12:04:46;;;;;;;4.45;1.77;;;15.10;99.90;;;;;;5001571;28;22239;-87
2024/03/17 12:07:17;;;;;;;3.20;1.25;;;15.20;99.90;;;;;;5000979;28;20049;-87
2024/03/17 12:09:46;;;;;;;4.63;1.48;;;15.30;99.90;;;;;;5001382;28;20026;-86
2024/03/17 12:12:22;;;;;;;2.95;1.20;;;15.50;99.90;;;;;;5000458;28;20049;-87
2024/03/17 12:14:49;;;;;;;4.35;1.33;;;15.80;99.90;;;;;;5000435;28;20029;-86
2024/03/17 12:17:24;;;;;;;4.60;1.30;;;15.90;99.90;;;;;;5000984;28;20509;-84
2024/03/17 12:19:50;;;;;;;4.07;1.10;;;15.80;99.90;;;;;;5000899;28;20523;-86
2024/03/17 12:22:21;;;;;;;3.72;1.83;;;15.60;99.90;;;;;;5002092;28;20790;-85
2024/03/17 12:24:50;;;;;;;3.35;1.70;;;15.40;99.90;;;;;;5005953;28;20117;-85
2024/03/17 12:27:18;;;;;;;4.10;1.48;;;15.10;99.90;;;;;;4997212;28;20034;-85
2024/03/17 12:29:44;;;;;;;5.32;1.52;;;15.00;99.90;;;;;;5001924;28;20026;-85
2024/03/17 12:32:18;;;;;;;3.03;1.33;;;15.00;99.90;;;;;;5000568;28;20094;-86
2024/03/17 12:34:45;;;;;;;3.72;1.25;;;15.00;99.90;;;;;;5001089;28;20061;-85
2024/03/17 12:37:18;;;;;;;3.05;1.40;;;15.10;99.90;;;;;;4999815;28;20068;-85
2024/03/17 12:39:44;;;;;;;3.63;1.40;;;15.20;99.90;;;;;;5002790;28;20038;-85
2024/03/17 12:42:13;;;;;;;3.88;1.30;;;15.20;99.90;;;;;;5000151;28;20018;-85
2024/03/17 12:44:42;;;;;;;12.77;2.55;;;15.30;99.90;;;;;;5001851;28;20385;-88
2024/03/17 12:47:37;;;;;;;3.70;1.45;;;15.40;99.90;;;;;;5006010;28;20108;-85
2024/03/17 12:50:11;;;;;;;4.38;1.20;;;15.40;99.90;;;;;;4996893;28;20121;-85
2024/03/17 12:52:37;;;;;;;4.45;1.15;;;15.30;99.90;;;;;;5000716;28;20564;-85
2024/03/17 13:00:37;;;;;;;4.35;1.17;;;15.10;99.90;;;;;;5008989;28;20548;-89
2024/03/17 13:03:08;;;;;;;3.97;1.45;;;15.10;99.90;;;;;;5001669;28;20026;-88
2024/03/17 13:05:35;;;;;;;4.68;1.30;;;15.20;99.90;;;;;;4998959;28;20030;-87